Time;durP1;ratioP1;P1;durP2;ratioP2;P2;SDS_P1;SDS_P2;PMS_P1;PMS_P2;Temp;Humidity;BMP_temperature;BMP_pressure;BME280_temperature;BME280_humidity;BME280_pressure;Samples;Min_cycle;Max_cycle;Signal;HPM_P1;HPM_P2
2022/11/26 00:00:47;;;;;;;20.50;4.45;;;12.30;57.50;;;;;;4988701;28;20050;-53
2022/11/26 00:03:15;;;;;;;12.63;4.78;;;12.30;57.50;;;;;;4997306;28;20061;-54
2022/11/26 00:05:44;;;;;;;16.13;4.47;;;12.30;57.50;;;;;;4982839;28;20646;-54
2022/11/26 00:08:20;;;;;;;19.48;4.90;;;12.30;58.00;;;;;;4983651;28;20065;-54
2022/11/26 00:10:50;;;;;;;14.75;4.40;;;12.30;57.50;;;;;;4996396;28;20057;-52
2022/11/26 00:13:20;;;;;;;11.73;4.20;;;12.40;57.60;;;;;;4997115;28;20054;-54
2022/11/26 00:15:47;;;;;;;16.17;4.32;;;12.40;57.50;;;;;;4993236;28;20050;-54
2022/11/26 00:18:15;;;;;;;15.23;4.35;;;12.40;57.50;;;;;;5003791;28;20061;-54
2022/11/26 00:20:43;;;;;;;12.82;4.30;;;12.30;57.40;;;;;;4980827;28;20652;-53
2022/11/26 00:23:20;;;;;;;15.45;4.72;;;12.40;57.40;;;;;;4994807;28;20069;-55
2022/11/26 00:25:49;;;;;;;16.38;4.78;;;12.40;57.40;;;;;;4989822;28;20057;-50
2022/11/26 00:28:30;;;;;;;15.23;5.20;;;12.40;57.40;;;;;;4991516;28;20071;-55
2022/11/26 00:30:59;;;;;;;16.65;4.95;;;12.30;57.30;;;;;;4987151;28;20053;-53
2022/11/26 00:33:27;;;;;;;20.13;5.35;;;12.30;57.20;;;;;;4990490;28;20069;-51
2022/11/26 00:35:58;;;;;;;23.20;6.85;;;12.30;57.10;;;;;;4991462;28;20054;-53
2022/11/26 00:38:27;;;;;;;18.63;5.00;;;12.30;57.10;;;;;;4999634;28;20054;-53
2022/11/26 00:40:54;;;;;;;17.65;4.75;;;12.30;57.00;;;;;;4991303;28;20046;-49
2022/11/26 00:43:22;;;;;;;17.05;4.68;;;12.30;57.00;;;;;;5001835;28;20053;-53
2022/11/26 00:45:49;;;;;;;14.00;4.95;;;12.30;57.10;;;;;;4996341;28;20046;-51
2022/11/26 00:48:18;;;;;;;18.35;5.32;;;12.20;57.00;;;;;;4988470;28;20399;-51
2022/11/26 00:50:49;;;;;;;20.40;4.90;;;12.20;57.00;;;;;;4984304;28;20054;-53
2022/11/26 00:53:18;;;;;;;16.90;5.13;;;12.20;57.00;;;;;;4988798;28;20060;-51
2022/11/26 00:55:49;;;;;;;18.52;5.50;;;12.20;57.00;;;;;;4988707;28;20065;-54
2022/11/26 00:58:23;;;;;;;15.60;4.60;;;12.10;57.00;;;;;;4983700;28;20054;-50
2022/11/26 01:00:51;;;;;;;15.75;5.38;;;12.10;57.00;;;;;;4983973;28;20050;-53
2022/11/26 01:03:18;;;;;;;16.42;5.43;;;12.10;57.00;;;;;;4989663;28;20061;-54
2022/11/26 01:05:48;;;;;;;15.93;5.75;;;12.10;57.00;;;;;;4988222;28;20047;-48
2022/11/26 01:08:29;;;;;;;14.27;4.22;;;12.10;57.00;;;;;;4995118;28;20483;-54
2022/11/26 01:10:58;;;;;;;16.65;5.05;;;12.10;57.00;;;;;;4987096;28;20050;-53
2022/11/26 01:13:25;;;;;;;17.15;5.10;;;12.00;57.00;;;;;;4984592;28;20062;-54
2022/11/26 01:15:54;;;;;;;17.55;5.10;;;12.00;57.00;;;;;;4982765;28;20134;-49
2022/11/26 01:18:22;;;;;;;16.10;5.00;;;12.00;57.00;;;;;;5003203;28;20066;-53
2022/11/26 01:20:50;;;;;;;17.23;6.32;;;12.00;57.00;;;;;;4994523;28;20387;-54
2022/11/26 01:23:19;;;;;;;15.38;5.20;;;12.00;57.10;;;;;;4985059;28;20058;-54
2022/11/26 01:25:47;;;;;;;8.88;4.70;;;12.00;57.10;;;;;;4989294;28;20474;-54
2022/11/26 01:28:18;;;;;;;14.35;4.53;;;11.90;57.10;;;;;;4981698;28;20061;-53
2022/11/26 01:30:46;;;;;;;11.98;4.15;;;12.00;57.60;;;;;;4994914;28;20083;-54
2022/11/26 01:33:13;;;;;;;15.02;4.57;;;11.90;57.20;;;;;;4994329;28;20050;-53
2022/11/26 01:35:40;;;;;;;16.65;5.00;;;11.90;57.20;;;;;;4995812;28;20050;-54
2022/11/26 01:38:12;;;;;;;12.55;4.50;;;11.90;57.20;;;;;;5001919;28;21332;-53
2022/11/26 01:40:53;;;;;;;13.88;4.25;;;11.90;57.30;;;;;;4985677;28;20061;-55
2022/11/26 01:43:26;;;;;;;12.88;4.65;;;11.90;57.30;;;;;;4996329;28;20050;-54
2022/11/26 01:45:54;;;;;;;11.32;4.07;;;11.90;57.30;;;;;;4980808;28;20624;-53
2022/11/26 01:48:28;;;;;;;17.33;3.90;;;12.00;57.30;;;;;;4985651;28;20058;-54
2022/11/26 01:50:59;;;;;;;10.30;4.03;;;12.00;57.20;;;;;;5000541;28;20057;-49
2022/11/26 01:53:43;;;;;;;16.35;3.90;;;12.00;57.20;;;;;;5005326;28;20061;-54
2022/11/26 01:56:19;;;;;;;14.10;4.05;;;12.00;57.10;;;;;;4990150;28;20046;-53
2022/11/26 01:58:53;;;;;;;15.88;3.90;;;12.00;57.10;;;;;;4991261;28;20049;-52
2022/11/26 02:01:21;;;;;;;14.98;3.72;;;12.00;57.00;;;;;;4986611;28;20061;-53
2022/11/26 02:03:55;;;;;;;15.48;3.63;;;12.00;57.00;;;;;;5000119;28;20050;-53
2022/11/26 02:06:26;;;;;;;12.18;3.20;;;11.90;56.90;;;;;;4987150;28;20049;-47
2022/11/26 02:08:54;;;;;;;7.95;2.83;;;11.90;56.90;;;;;;4996440;28;20516;-51
2022/11/26 02:11:24;;;;;;;12.07;3.30;;;11.90;56.90;;;;;;4983072;28;20411;-53
2022/11/26 02:13:57;;;;;;;16.88;3.17;;;11.90;56.90;;;;;;4989829;28;20066;-54
2022/11/26 02:17:01;;;;;;;13.32;3.33;;;11.90;56.90;;;;;;4985778;28;20419;-53
2022/11/26 02:20:05;;;;;;;16.67;3.70;;;11.90;56.90;;;;;;4986414;28;20062;-54
2022/11/26 02:23:01;;;;;;;11.60;3.80;;;11.90;56.90;;;;;;4990319;28;20065;-51
2022/11/26 02:25:39;;;;;;;14.40;3.17;;;12.00;56.90;;;;;;4982363;28;20050;-54
2022/11/26 02:28:33;;;;;;;8.93;3.13;;;11.90;56.80;;;;;;4995474;28;20050;-49
2022/11/26 02:31:08;;;;;;;8.40;3.20;;;11.90;56.90;;;;;;4997157;28;20050;-53
2022/11/26 02:33:41;;;;;;;8.65;3.33;;;11.90;56.90;;;;;;4993869;28;20065;-53
2022/11/26 02:36:14;;;;;;;7.68;3.50;;;11.90;56.90;;;;;;4990450;28;20066;-50
2022/11/26 02:38:42;;;;;;;12.90;3.65;;;11.90;56.90;;;;;;4982247;28;20065;-53
2022/11/26 02:41:09;;;;;;;8.73;3.55;;;11.90;56.80;;;;;;4985019;28;20057;-54
2022/11/26 02:43:37;;;;;;;14.90;3.85;;;11.90;56.80;;;;;;4990396;28;20062;-53
2022/11/26 02:46:09;;;;;;;9.82;3.35;;;11.90;56.70;;;;;;4995816;28;20051;-54
2022/11/26 02:48:42;;;;;;;8.70;3.50;;;11.90;56.70;;;;;;4989633;28;20058;-53
2022/11/26 02:51:12;;;;;;;11.82;3.80;;;11.90;56.70;;;;;;5000160;28;20049;-54
2022/11/26 02:53:41;;;;;;;13.10;4.18;;;11.90;56.70;;;;;;4990219;28;20054;-53
2022/11/26 02:56:12;;;;;;;6.72;3.10;;;11.80;56.60;;;;;;4988824;28;20046;-54
2022/11/26 02:58:39;;;;;;;9.50;3.53;;;11.80;56.70;;;;;;4990072;28;20423;-55
2022/11/26 03:01:12;;;;;;;11.15;3.53;;;11.80;56.60;;;;;;4991748;28;20058;-49
2022/11/26 03:03:45;;;;;;;9.73;3.28;;;11.70;56.60;;;;;;4997467;28;20065;-54
2022/11/26 03:06:14;;;;;;;10.65;4.15;;;11.70;56.60;;;;;;4988215;28;20077;-52
2022/11/26 03:08:44;;;;;;;6.75;3.60;;;11.70;56.50;;;;;;4984713;28;20058;-50
2022/11/26 03:11:12;;;;;;;16.13;3.10;;;11.60;56.40;;;;;;4987916;28;20049;-54
2022/11/26 03:13:39;;;;;;;11.88;3.75;;;11.60;56.40;;;;;;4988966;28;20510;-52
2022/11/26 03:16:08;;;;;;;9.60;3.60;;;11.60;56.30;;;;;;4982192;28;20054;-54
2022/11/26 03:18:35;;;;;;;10.27;2.92;;;11.50;56.30;;;;;;4987442;28;20058;-54
2022/11/26 03:24:29;;;;;;;8.48;2.67;;;11.40;56.10;;;;;;5020562;28;20037;-50
2022/11/26 03:26:56;;;;;;;8.73;2.67;;;11.40;56.20;;;;;;5016816;28;20053;-54
2022/11/26 03:29:23;;;;;;;10.40;3.13;;;11.40;56.20;;;;;;5023526;28;20473;-54
2022/11/26 03:31:52;;;;;;;9.75;2.63;;;11.30;56.30;;;;;;5030403;28;20405;-54
2022/11/26 03:34:19;;;;;;;8.73;2.70;;;11.30;56.30;;;;;;5028708;28;20072;-54
2022/11/26 03:36:47;;;;;;;9.05;3.00;;;11.30;56.40;;;;;;5032281;28;20064;-54
2022/11/26 03:39:14;;;;;;;9.20;2.80;;;11.30;56.40;;;;;;5031125;28;20053;-54
2022/11/26 03:41:43;;;;;;;11.30;3.20;;;11.20;56.30;;;;;;5037539;28;20738;-54
2022/11/26 03:44:10;;;;;;;11.13;2.40;;;11.20;56.20;;;;;;5022744;28;20473;-51
2022/11/26 03:46:37;;;;;;;6.85;2.55;;;11.20;56.20;;;;;;5015335;28;20482;-54
2022/11/26 03:49:06;;;;;;;9.65;2.58;;;11.10;56.20;;;;;;5030620;28;20065;-53
2022/11/26 03:51:34;;;;;;;7.18;2.80;;;11.10;56.10;;;;;;5029488;28;20133;-54
2022/11/26 03:54:01;;;;;;;7.47;2.65;;;11.10;56.10;;;;;;5033215;28;20049;-49
2022/11/26 03:56:28;;;;;;;7.95;3.10;;;11.00;56.10;;;;;;5022432;28;20057;-50
2022/11/26 03:58:55;;;;;;;10.25;2.92;;;11.00;56.20;;;;;;5034417;28;20057;-51
2022/11/26 04:01:23;;;;;;;6.57;3.00;;;11.00;56.20;;;;;;5032198;28;20077;-50
2022/11/26 04:03:50;;;;;;;10.63;2.70;;;10.90;56.20;;;;;;5024976;28;20052;-53
2022/11/26 04:06:19;;;;;;;8.20;2.67;;;10.90;56.20;;;;;;5030095;28;20520;-53
2022/11/26 04:08:46;;;;;;;12.43;3.00;;;10.90;56.20;;;;;;5022797;28;20053;-53
2022/11/26 04:11:13;;;;;;;7.65;2.80;;;10.90;56.10;;;;;;5024548;28;20057;-54
2022/11/26 04:13:40;;;;;;;8.55;2.05;;;10.80;56.10;;;;;;5026338;28;20084;-54
2022/11/26 04:16:08;;;;;;;8.90;2.72;;;10.80;56.10;;;;;;5025355;28;20053;-51
2022/11/26 04:18:36;;;;;;;8.77;2.65;;;10.80;56.20;;;;;;5038471;28;20052;-52
2022/11/26 04:21:06;;;;;;;8.55;2.83;;;10.80;56.20;;;;;;5025320;28;20057;-52
2022/11/26 04:23:35;;;;;;;5.95;2.42;;;10.70;56.10;;;;;;5029265;28;20366;-53
2022/11/26 04:26:03;;;;;;;7.65;2.70;;;10.70;56.10;;;;;;5031611;28;20634;-54
2022/11/26 04:28:30;;;;;;;6.63;2.80;;;10.70;56.10;;;;;;5032063;28;20052;-49
2022/11/26 04:30:57;;;;;;;10.02;3.05;;;10.60;56.10;;;;;;5032208;28;20057;-54
2022/11/26 04:33:25;;;;;;;6.88;2.60;;;10.60;56.10;;;;;;5019889;28;20060;-54
2022/11/26 04:35:53;;;;;;;10.20;3.22;;;10.60;56.20;;;;;;5040362;28;20071;-53
2022/11/26 04:38:20;;;;;;;11.10;3.30;;;10.50;56.20;;;;;;5026919;28;20048;-54
2022/11/26 04:40:49;;;;;;;12.00;3.10;;;10.50;56.20;;;;;;5021883;28;20057;-53
2022/11/26 04:43:16;;;;;;;7.65;2.17;;;10.50;56.20;;;;;;5011403;28;20508;-53
2022/11/26 04:45:43;;;;;;;8.40;2.70;;;10.50;56.20;;;;;;5021610;28;20054;-51
2022/11/26 04:48:11;;;;;;;11.95;2.83;;;10.40;56.20;;;;;;5023640;28;20504;-53
2022/11/26 04:50:38;;;;;;;10.65;2.38;;;10.40;56.30;;;;;;5017013;28;20050;-50
2022/11/26 04:53:05;;;;;;;8.60;2.85;;;10.40;56.30;;;;;;5018520;28;20057;-53
2022/11/26 04:55:32;;;;;;;7.80;2.83;;;10.40;56.20;;;;;;5027657;28;20060;-53
2022/11/26 04:58:01;;;;;;;7.70;2.63;;;10.40;56.20;;;;;;5032305;28;20087;-54
2022/11/26 05:00:28;;;;;;;8.27;2.55;;;10.30;56.20;;;;;;5018243;28;20065;-54
2022/11/26 05:02:55;;;;;;;7.72;2.58;;;10.30;56.20;;;;;;5017475;28;20049;-53
2022/11/26 05:05:23;;;;;;;9.35;2.70;;;10.30;56.20;;;;;;5023979;28;20057;-53
2022/11/26 05:07:50;;;;;;;6.13;2.42;;;10.20;56.20;;;;;;5023827;28;20513;-53
2022/11/26 05:10:18;;;;;;;12.82;2.83;;;10.20;56.30;;;;;;5018713;28;20053;-52
2022/11/26 05:12:45;;;;;;;10.85;2.55;;;10.20;56.40;;;;;;5023018;28;20057;-52
2022/11/26 05:15:14;;;;;;;10.95;2.72;;;10.20;56.40;;;;;;5018596;28;20649;-53
2022/11/26 05:17:41;;;;;;;9.50;2.72;;;10.20;56.40;;;;;;5011523;28;20049;-52
2022/11/26 05:20:09;;;;;;;9.30;2.63;;;10.10;56.30;;;;;;5018433;28;20053;-52
2022/11/26 05:22:36;;;;;;;9.30;2.33;;;10.10;56.30;;;;;;5023689;28;20053;-53
2022/11/26 05:25:04;;;;;;;7.68;2.45;;;10.10;56.30;;;;;;5024838;28;20049;-53
2022/11/26 05:27:31;;;;;;;11.63;2.97;;;10.10;56.40;;;;;;5016746;28;20049;-53
2022/11/26 05:29:58;;;;;;;14.68;4.05;;;10.10;56.40;;;;;;5034186;28;20057;-53
2022/11/26 05:32:27;;;;;;;6.68;2.40;;;10.00;56.30;;;;;;5022732;28;20054;-53
2022/11/26 05:34:54;;;;;;;7.95;2.72;;;10.00;56.30;;;;;;5022992;28;20068;-54
2022/11/26 05:37:21;;;;;;;9.45;2.92;;;10.00;56.30;;;;;;5022093;28;20053;-54
2022/11/26 05:39:49;;;;;;;7.60;2.42;;;10.00;56.30;;;;;;5020072;28;20057;-45
2022/11/26 05:42:17;;;;;;;6.68;2.70;;;9.90;56.30;;;;;;5016570;28;20386;-47
2022/11/26 05:44:44;;;;;;;10.88;2.97;;;9.90;56.30;;;;;;5033337;28;20409;-53
2022/11/26 05:47:11;;;;;;;8.45;2.88;;;9.90;56.30;;;;;;5021686;28;20042;-54
2022/11/26 05:49:40;;;;;;;5.88;2.70;;;9.90;56.40;;;;;;5022801;28;20430;-54
2022/11/26 05:52:07;;;;;;;7.00;2.75;;;9.80;56.30;;;;;;5019386;28;20060;-54
2022/11/26 05:54:34;;;;;;;6.07;2.95;;;9.80;56.40;;;;;;5019296;28;20068;-52
2022/11/26 05:57:01;;;;;;;8.43;3.15;;;9.80;56.90;;;;;;5027513;28;20405;-51
2022/11/26 05:59:29;;;;;;;11.10;3.30;;;9.70;56.40;;;;;;5019982;28;20053;-48
2022/11/26 06:01:56;;;;;;;7.80;3.00;;;9.70;56.40;;;;;;5022909;28;20058;-53
2022/11/26 06:04:24;;;;;;;10.30;4.10;;;9.70;56.40;;;;;;5021957;28;20053;-53
2022/11/26 06:06:52;;;;;;;6.57;3.38;;;9.70;56.40;;;;;;5026587;28;20045;-54
2022/11/26 06:09:20;;;;;;;10.07;3.13;;;9.70;56.40;;;;;;5029386;28;20067;-54
2022/11/26 06:11:49;;;;;;;5.82;3.03;;;9.70;56.40;;;;;;5025042;28;20057;-53
2022/11/26 06:14:16;;;;;;;15.20;3.50;;;9.60;56.40;;;;;;5020731;28;20056;-53
2022/11/26 06:16:44;;;;;;;8.30;3.38;;;9.60;56.40;;;;;;5026331;28;20409;-52
2022/11/26 06:19:11;;;;;;;8.90;3.10;;;9.60;56.40;;;;;;5025843;28;20049;-54
2022/11/26 06:21:38;;;;;;;6.82;2.78;;;9.60;56.40;;;;;;5025658;28;20053;-54
2022/11/26 06:24:07;;;;;;;7.72;3.63;;;9.60;56.40;;;;;;5029909;28;20049;-54
2022/11/26 06:26:34;;;;;;;9.13;3.33;;;9.50;56.40;;;;;;5024540;28;20057;-52
2022/11/26 06:29:02;;;;;;;8.52;3.50;;;9.50;56.50;;;;;;5033174;28;20051;-53
2022/11/26 06:31:29;;;;;;;9.68;3.90;;;9.50;56.50;;;;;;5025920;28;20495;-55
2022/11/26 06:33:58;;;;;;;6.22;3.10;;;9.50;56.50;;;;;;5036770;28;20440;-54
2022/11/26 06:36:25;;;;;;;6.70;3.05;;;9.50;56.50;;;;;;5040255;28;20053;-53
2022/11/26 06:38:52;;;;;;;7.75;3.50;;;9.50;56.50;;;;;;5022042;28;20048;-48
2022/11/26 06:41:21;;;;;;;7.85;3.78;;;9.40;56.40;;;;;;5024845;28;20049;-53
2022/11/26 06:43:49;;;;;;;6.78;3.30;;;9.40;56.40;;;;;;5039996;28;20437;-53
2022/11/26 06:46:16;;;;;;;10.73;4.57;;;9.40;56.40;;;;;;5028522;28;20053;-47
2022/11/26 06:48:43;;;;;;;7.88;3.20;;;9.40;56.40;;;;;;5037434;28;20409;-50
2022/11/26 06:51:14;;;;;;;7.20;3.22;;;9.40;56.30;;;;;;5019921;28;20045;-53
2022/11/26 06:53:41;;;;;;;8.82;3.67;;;9.30;56.20;;;;;;5025288;28;20053;-52
2022/11/26 06:56:12;;;;;;;5.32;3.00;;;9.30;56.20;;;;;;5024801;28;20049;-53
2022/11/26 06:58:40;;;;;;;6.85;3.28;;;9.30;56.20;;;;;;5024554;28;20048;-54
2022/11/26 07:01:08;;;;;;;8.48;3.40;;;9.20;56.20;;;;;;5025094;28;20056;-48
2022/11/26 07:03:36;;;;;;;5.57;2.92;;;9.20;56.20;;;;;;5015867;28;20052;-54
2022/11/26 07:06:03;;;;;;;8.52;2.85;;;9.20;56.20;;;;;;5031448;28;20495;-54
2022/11/26 07:08:31;;;;;;;7.97;3.22;;;9.20;56.20;;;;;;5021749;28;20321;-51
2022/11/26 07:11:03;;;;;;;7.65;3.00;;;9.10;56.10;;;;;;5019637;28;20060;-53
2022/11/26 07:13:31;;;;;;;5.65;3.15;;;9.10;56.10;;;;;;5023321;28;20053;-54
2022/11/26 07:16:03;;;;;;;6.70;3.22;;;9.10;56.10;;;;;;5023637;28;20046;-55
2022/11/26 07:18:30;;;;;;;6.00;3.90;;;9.00;56.00;;;;;;5023622;28;20072;-52
2022/11/26 07:20:58;;;;;;;7.03;3.13;;;9.10;56.00;;;;;;5020104;28;20512;-53
2022/11/26 07:23:25;;;;;;;4.45;3.20;;;9.00;56.00;;;;;;5021949;28;20056;-53
2022/11/26 07:25:52;;;;;;;5.47;3.33;;;9.00;56.00;;;;;;5020641;28;20057;-53
2022/11/26 07:28:19;;;;;;;6.18;3.20;;;9.00;56.10;;;;;;5023930;28;20072;-54
2022/11/26 07:30:46;;;;;;;7.05;3.20;;;8.90;56.00;;;;;;5022768;28;20058;-54
2022/11/26 07:33:15;;;;;;;5.80;2.67;;;8.90;56.10;;;;;;5030717;28;20049;-53
2022/11/26 07:35:42;;;;;;;4.47;3.05;;;8.90;56.10;;;;;;5038240;28;20571;-54
2022/11/26 07:38:10;;;;;;;4.43;2.92;;;8.90;56.10;;;;;;5043837;28;20481;-55
2022/11/26 07:40:37;;;;;;;5.28;3.17;;;8.90;56.20;;;;;;5039531;28;20417;-49
2022/11/26 07:43:04;;;;;;;5.18;3.10;;;8.80;56.20;;;;;;5036346;28;20060;-50
2022/11/26 07:45:31;;;;;;;7.05;3.50;;;8.80;56.30;;;;;;5035250;28;20513;-48
2022/11/26 07:47:59;;;;;;;6.03;3.13;;;8.80;56.80;;;;;;5022811;28;20050;-52
2022/11/26 07:50:27;;;;;;;8.68;2.92;;;8.80;56.50;;;;;;5019096;28;20072;-53
2022/11/26 07:52:54;;;;;;;4.60;3.10;;;8.80;56.60;;;;;;5010026;28;20062;-55
2022/11/26 07:55:22;;;;;;;4.25;2.90;;;8.80;56.70;;;;;;5018341;28;20057;-53
2022/11/26 07:57:49;;;;;;;4.28;3.10;;;8.80;56.70;;;;;;5017982;28;20057;-54
2022/11/26 08:00:18;;;;;;;5.40;2.72;;;8.80;56.70;;;;;;5019751;28;20058;-54
2022/11/26 08:02:45;;;;;;;7.95;3.33;;;8.90;56.80;;;;;;5011905;28;20453;-54
2022/11/26 08:05:12;;;;;;;8.52;3.25;;;8.90;56.80;;;;;;5023088;28;20060;-54
2022/11/26 08:07:41;;;;;;;5.82;3.33;;;8.90;56.80;;;;;;5012366;28;20049;-54
2022/11/26 08:10:09;;;;;;;4.80;3.40;;;8.90;56.90;;;;;;5013855;28;20049;-51
2022/11/26 08:12:36;;;;;;;6.63;3.58;;;8.90;56.90;;;;;;5013633;28;20049;-53
2022/11/26 08:15:04;;;;;;;5.35;3.20;;;8.90;57.00;;;;;;5022989;28;20054;-53
2022/11/26 08:17:31;;;;;;;5.05;3.20;;;8.90;57.00;;;;;;5014674;28;20053;-55
2022/11/26 08:19:58;;;;;;;7.72;3.38;;;8.90;57.00;;;;;;5016103;28;20494;-53
2022/11/26 08:22:25;;;;;;;4.82;2.70;;;8.90;57.00;;;;;;5019640;28;20061;-51
2022/11/26 08:24:54;;;;;;;5.97;3.65;;;9.00;57.20;;;;;;5013034;28;20911;-47
2022/11/26 08:27:23;;;;;;;5.53;3.28;;;9.00;57.20;;;;;;5013690;28;20413;-51
2022/11/26 08:29:50;;;;;;;5.47;3.65;;;9.00;57.20;;;;;;5007514;28;20505;-53
2022/11/26 08:32:18;;;;;;;4.60;2.63;;;9.10;57.30;;;;;;5013715;28;20058;-55
2022/11/26 08:34:45;;;;;;;5.93;3.35;;;9.00;57.30;;;;;;5010071;28;20068;-54
2022/11/26 08:37:12;;;;;;;6.20;3.30;;;9.10;57.30;;;;;;5013077;28;20065;-54
2022/11/26 08:39:40;;;;;;;7.43;3.70;;;9.10;57.40;;;;;;5017616;28;20053;-54
2022/11/26 08:42:08;;;;;;;7.13;3.90;;;9.10;57.40;;;;;;4999657;28;20052;-54
2022/11/26 08:44:35;;;;;;;8.38;3.72;;;9.10;57.40;;;;;;5011627;28;20517;-53
2022/11/26 08:47:03;;;;;;;7.75;4.00;;;9.20;57.40;;;;;;5005325;28;20057;-54
2022/11/26 08:49:30;;;;;;;5.75;3.50;;;9.20;57.50;;;;;;5009871;28;20045;-53
2022/11/26 08:51:57;;;;;;;4.60;3.45;;;9.10;57.50;;;;;;5002107;28;20046;-53
2022/11/26 08:54:24;;;;;;;6.45;3.88;;;9.20;57.60;;;;;;5018670;28;20060;-54
2022/11/26 08:56:51;;;;;;;10.45;3.60;;;9.20;57.60;;;;;;5009562;28;20053;-53
2022/11/26 08:59:23;;;;;;;6.72;3.97;;;9.20;57.70;;;;;;5009321;28;20075;-52
2022/11/26 09:01:50;;;;;;;7.07;3.78;;;9.30;57.70;;;;;;5007459;28;20054;-51
2022/11/26 09:04:17;;;;;;;8.93;3.47;;;9.30;57.80;;;;;;5009017;28;20068;-52
2022/11/26 09:06:44;;;;;;;5.60;3.58;;;9.30;57.80;;;;;;5002107;28;20050;-49
2022/11/26 09:09:16;;;;;;;6.97;3.20;;;9.30;57.90;;;;;;5013269;28;20046;-53
2022/11/26 09:11:46;;;;;;;4.63;3.22;;;9.30;57.90;;;;;;5004379;28;20502;-50
2022/11/26 09:14:15;;;;;;;6.65;3.40;;;9.40;58.00;;;;;;5006944;28;20445;-51
2022/11/26 09:16:44;;;;;;;6.45;3.47;;;9.40;58.10;;;;;;5006133;28;20061;-54
2022/11/26 09:19:13;;;;;;;4.75;3.42;;;9.40;58.10;;;;;;5009891;28;20053;-53
2022/11/26 09:21:41;;;;;;;4.93;3.08;;;9.40;58.10;;;;;;5002908;28;20582;-51
2022/11/26 09:24:08;;;;;;;8.30;3.88;;;9.50;58.10;;;;;;4998555;28;20386;-48
2022/11/26 09:26:36;;;;;;;7.25;3.78;;;9.50;58.10;;;;;;5004959;28;20062;-53
2022/11/26 09:29:04;;;;;;;6.80;3.90;;;9.50;58.10;;;;;;5005363;28;20042;-47
2022/11/26 09:31:32;;;;;;;5.90;3.63;;;9.50;58.10;;;;;;5002001;28;20061;-53
2022/11/26 09:34:02;;;;;;;7.10;3.85;;;9.50;58.10;;;;;;5010052;28;20054;-54
2022/11/26 09:36:29;;;;;;;7.75;3.97;;;9.50;58.10;;;;;;5004900;28;20057;-55
2022/11/26 09:38:57;;;;;;;6.32;4.30;;;9.60;58.10;;;;;;5004852;28;20049;-54
2022/11/26 09:41:37;;;;;;;6.68;4.10;;;9.60;58.10;;;;;;5012486;28;20133;-54
2022/11/26 09:44:22;;;;;;;7.72;4.38;;;9.60;58.20;;;;;;5010076;28;20046;-53
2022/11/26 09:47:03;;;;;;;6.60;4.05;;;9.60;58.30;;;;;;4999976;28;20054;-53
2022/11/26 09:49:36;;;;;;;8.52;4.53;;;9.60;58.20;;;;;;5001787;28;20058;-50
2022/11/26 09:52:06;;;;;;;6.43;3.85;;;9.70;58.20;;;;;;5014040;28;20057;-52
2022/11/26 09:54:33;;;;;;;6.13;3.97;;;9.70;58.20;;;;;;5020429;28;20056;-54
2022/11/26 09:57:15;;;;;;;5.10;3.67;;;9.70;58.20;;;;;;5017872;28;20128;-54
2022/11/26 09:59:45;;;;;;;7.03;3.92;;;9.70;58.20;;;;;;5039979;28;20056;-55
2022/11/26 10:02:13;;;;;;;6.75;4.45;;;9.70;58.20;;;;;;5040645;28;20487;-54
2022/11/26 10:04:42;;;;;;;6.93;4.22;;;9.80;58.20;;;;;;5035522;28;20432;-55
2022/11/26 10:07:25;;;;;;;7.15;4.20;;;9.80;58.20;;;;;;5028961;28;20053;-53
2022/11/26 10:10:01;;;;;;;7.13;4.30;;;9.80;58.20;;;;;;5039547;28;20052;-50
2022/11/26 10:12:41;;;;;;;6.82;4.40;;;9.80;58.20;;;;;;5017915;28;20088;-55
2022/11/26 10:15:16;;;;;;;6.65;4.20;;;9.80;58.20;;;;;;5026591;28;20049;-46
2022/11/26 10:17:56;;;;;;;6.18;4.03;;;9.90;58.20;;;;;;5038154;28;20056;-54
2022/11/26 10:20:53;;;;;;;6.15;4.00;;;9.90;58.30;;;;;;5041972;28;20053;-54
2022/11/26 10:23:27;;;;;;;8.52;4.07;;;9.90;58.30;;;;;;5031460;28;20060;-51
2022/11/26 10:26:00;;;;;;;6.70;4.60;;;9.90;58.20;;;;;;5035830;28;20096;-54
2022/11/26 10:28:30;;;;;;;7.43;4.30;;;9.90;58.30;;;;;;5032080;28;20057;-54
2022/11/26 10:30:59;;;;;;;9.75;5.05;;;9.90;58.30;;;;;;5035030;28;20057;-52
2022/11/26 10:33:29;;;;;;;7.05;4.68;;;9.90;58.40;;;;;;5032246;28;20064;-53
2022/11/26 10:35:57;;;;;;;10.95;4.78;;;10.00;58.40;;;;;;5022689;28;20049;-53
2022/11/26 10:38:25;;;;;;;10.18;5.10;;;10.00;58.40;;;;;;5021441;28;20498;-53
2022/11/26 10:40:52;;;;;;;9.65;4.78;;;10.10;58.50;;;;;;5032356;28;20049;-52
2022/11/26 10:43:23;;;;;;;14.85;5.30;;;10.10;58.50;;;;;;5026637;28;20080;-54
2022/11/26 10:45:52;;;;;;;7.80;4.72;;;10.10;58.50;;;;;;5029744;28;20065;-53
2022/11/26 10:48:24;;;;;;;7.93;4.68;;;10.10;58.40;;;;;;5011468;28;20067;-51
2022/11/26 10:51:01;;;;;;;8.35;4.55;;;10.10;58.40;;;;;;5005963;28;20053;-52
2022/11/26 10:53:31;;;;;;;9.20;4.18;;;10.20;58.40;;;;;;5021049;28;20493;-54
2022/11/26 10:56:00;;;;;;;8.13;4.07;;;10.20;58.40;;;;;;5037702;28;20052;-54
2022/11/26 10:58:30;;;;;;;11.57;4.38;;;10.20;58.40;;;;;;5026940;28;20049;-54
2022/11/26 11:01:03;;;;;;;7.82;4.25;;;10.30;58.40;;;;;;5025556;28;20053;-53
2022/11/26 11:03:33;;;;;;;12.18;5.20;;;10.20;58.40;;;;;;5025134;28;20072;-52
2022/11/26 11:06:25;;;;;;;7.72;4.75;;;10.30;58.40;;;;;;5019891;28;20052;-53
2022/11/26 11:08:53;;;;;;;10.88;5.00;;;10.30;58.40;;;;;;5006988;28;20057;-49
2022/11/26 11:11:22;;;;;;;10.63;4.75;;;10.30;58.40;;;;;;5010674;28;20071;-50
2022/11/26 11:13:50;;;;;;;8.85;4.63;;;10.40;58.40;;;;;;5005107;28;20050;-54
2022/11/26 11:16:26;;;;;;;8.68;4.20;;;10.40;58.40;;;;;;5011890;28;20064;-55
2022/11/26 11:18:58;;;;;;;8.45;3.97;;;10.40;58.50;;;;;;5012928;28;20494;-52
2022/11/26 11:21:30;;;;;;;6.75;4.20;;;10.40;58.50;;;;;;5009047;28;20520;-50
2022/11/26 11:24:07;;;;;;;8.75;4.60;;;10.40;58.50;;;;;;5010806;28;20054;-54
2022/11/26 11:26:42;;;;;;;12.63;4.63;;;10.50;58.60;;;;;;5015686;28;20053;-54
2022/11/26 11:29:31;;;;;;;12.98;5.10;;;10.50;58.50;;;;;;5007772;28;20054;-54
2022/11/26 11:32:00;;;;;;;11.10;5.30;;;10.50;58.60;;;;;;5010873;28;20061;-52
2022/11/26 11:34:31;;;;;;;11.25;4.55;;;10.50;58.50;;;;;;5017812;28;20052;-54
2022/11/26 11:37:01;;;;;;;11.65;4.72;;;10.50;58.50;;;;;;5007668;28;20054;-53
2022/11/26 11:39:30;;;;;;;9.52;4.55;;;10.60;58.50;;;;;;5004578;28;20058;-53
2022/11/26 11:41:59;;;;;;;10.48;4.40;;;10.60;58.50;;;;;;5021567;28;21247;-53
2022/11/26 11:44:33;;;;;;;9.88;5.10;;;10.60;58.50;;;;;;5017776;28;20053;-52
2022/11/26 11:47:21;;;;;;;9.55;4.32;;;10.60;58.50;;;;;;5017535;28;20412;-54
2022/11/26 11:50:03;;;;;;;9.40;4.10;;;10.60;58.50;;;;;;4994155;28;20509;-55
2022/11/26 11:52:43;;;;;;;7.85;4.18;;;10.70;58.50;;;;;;5002147;28;20050;-45
2022/11/26 11:55:21;;;;;;;10.77;4.78;;;10.70;58.50;;;;;;5020526;28;20049;-54
2022/11/26 11:58:21;;;;;;;11.30;4.88;;;10.70;58.60;;;;;;5009831;28;20058;-54
2022/11/26 12:00:55;;;;;;;9.38;4.40;;;10.70;58.60;;;;;;5010176;28;20045;-54
2022/11/26 12:03:44;;;;;;;13.23;4.40;;;10.80;58.60;;;;;;5022540;28;20500;-51
2022/11/26 12:06:23;;;;;;;12.10;4.60;;;10.80;58.60;;;;;;5009507;28;20065;-49
2022/11/26 12:09:07;;;;;;;9.52;4.40;;;10.80;58.60;;;;;;5010054;28;20060;-52
2022/11/26 12:11:47;;;;;;;10.85;4.28;;;10.80;58.60;;;;;;5010733;28;20049;-51
2022/11/26 12:14:19;;;;;;;7.25;3.97;;;10.90;58.60;;;;;;5008991;28;20057;-51
2022/11/26 12:16:50;;;;;;;9.60;4.40;;;10.80;58.50;;;;;;5012225;28;20053;-55
2022/11/26 12:19:27;;;;;;;9.98;4.57;;;10.90;58.50;;;;;;5009464;28;20050;-53
2022/11/26 12:22:01;;;;;;;14.23;4.80;;;10.90;58.50;;;;;;5003492;28;20064;-51
2022/11/26 12:24:37;;;;;;;13.57;4.35;;;10.90;58.50;;;;;;5007872;28;20417;-52
2022/11/26 12:27:15;;;;;;;9.82;3.88;;;10.90;58.50;;;;;;5013543;28;20049;-54
2022/11/26 12:29:47;;;;;;;10.48;3.63;;;11.00;58.50;;;;;;5017652;28;20056;-55
2022/11/26 12:32:17;;;;;;;7.95;3.97;;;11.00;58.50;;;;;;5017358;28;20064;-51
2022/11/26 12:34:48;;;;;;;8.15;4.05;;;11.00;58.50;;;;;;5011571;28;20061;-55
2022/11/26 12:37:20;;;;;;;10.60;4.60;;;11.00;58.50;;;;;;5007778;28;20062;-55
2022/11/26 12:39:56;;;;;;;9.45;3.80;;;11.00;58.50;;;;;;5008694;28;20053;-53
2022/11/26 12:42:29;;;;;;;12.77;4.25;;;11.00;58.50;;;;;;5011622;28;20049;-54
2022/11/26 12:45:05;;;;;;;11.35;3.70;;;11.00;58.50;;;;;;5012187;28;20493;-54
2022/11/26 12:47:37;;;;;;;8.75;3.40;;;11.10;58.60;;;;;;5009719;28;20421;-52
2022/11/26 12:50:15;;;;;;;6.35;3.35;;;11.10;58.50;;;;;;5020320;28;20059;-52
2022/11/26 12:52:50;;;;;;;11.65;3.95;;;11.10;58.60;;;;;;5000729;28;20115;-49
2022/11/26 12:55:21;;;;;;;;;;;11.10;58.60;;;;;;5012329;28;20058;-54
2022/11/26 12:57:53;;;;;;;10.15;3.20;;;11.20;58.60;;;;;;5003185;28;20592;-55
2022/11/26 13:00:23;;;;;;;10.00;3.53;;;11.20;58.40;;;;;;5010750;28;20056;-54
2022/11/26 13:02:51;;;;;;;8.75;3.67;;;11.20;58.40;;;;;;5010745;28;20049;-49
2022/11/26 13:05:22;;;;;;;10.45;3.40;;;11.20;58.50;;;;;;5010666;28;20061;-53
2022/11/26 13:08:15;;;;;;;10.05;3.45;;;11.20;58.50;;;;;;5017482;28;20057;-54